createdAt,value
2018-03-22T00:01:17.570Z,5.43
2018-03-22T00:03:43.570Z,5.57
2018-03-22T00:06:10.275Z,4.70
2018-03-22T00:08:36.271Z,3.97
2018-03-22T00:11:02.234Z,5.00
2018-03-22T00:13:28.266Z,4.17
2018-03-22T00:15:54.247Z,3.60
2018-03-22T00:18:20.274Z,2.87
2018-03-22T00:20:46.324Z,8.13
2018-03-22T00:23:12.338Z,5.17
2018-03-22T00:25:38.306Z,5.60
2018-03-22T00:28:05.050Z,4.50
2018-03-22T00:30:31.135Z,6.40
2018-03-22T00:32:57.190Z,4.93
2018-03-22T00:35:23.166Z,3.80
2018-03-22T00:37:49.221Z,4.47
2018-03-22T00:40:15.974Z,3.60
2018-03-22T00:42:42.709Z,4.50
2018-03-22T00:45:08.722Z,5.10
2018-03-22T00:47:34.707Z,3.70
2018-03-22T00:50:00.808Z,4.60
2018-03-22T00:52:27.621Z,6.07
2018-03-22T00:54:53.597Z,5.20
2018-03-22T00:57:19.550Z,4.70
2018-03-22T00:59:46.296Z,5.03
2018-03-22T01:02:12.298Z,4.40
2018-03-22T01:04:38.262Z,3.57
2018-03-22T01:07:04.251Z,4.50
2018-03-22T01:09:30.282Z,6.07
2018-03-22T01:11:56.308Z,6.10
2018-03-22T01:14:22.277Z,7.60
2018-03-22T01:16:48.250Z,4.47
2018-03-22T01:19:14.246Z,3.90
2018-03-22T01:21:40.211Z,5.87
2018-03-22T01:24:06.197Z,6.57
2018-03-22T01:26:32.206Z,4.27
2018-03-22T01:28:58.973Z,3.33
2018-03-22T01:31:25.714Z,4.93
2018-03-22T01:33:52.429Z,3.60
2018-03-22T01:36:18.400Z,8.47
2018-03-22T01:38:45.153Z,2.90
2018-03-22T01:41:11.856Z,3.83
2018-03-22T01:43:37.853Z,2.17
2018-03-22T01:46:04.558Z,1.93
2018-03-22T01:48:30.626Z,2.57
2018-03-22T01:50:57.377Z,3.30
2018-03-22T01:53:23.313Z,2.93
2018-03-22T01:55:50.033Z,2.53
2018-03-22T01:58:16.009Z,5.10
2018-03-22T02:00:42.718Z,3.30
2018-03-22T02:03:08.665Z,3.00
2018-03-22T02:05:34.649Z,3.33
2018-03-22T02:08:01.418Z,3.20
2018-03-22T02:10:27.463Z,5.30
2018-03-22T02:12:53.429Z,5.33
2018-03-22T02:15:19.385Z,5.87
2018-03-22T02:17:45.371Z,7.17
2018-03-22T02:20:11.313Z,3.53
2018-03-22T02:22:37.305Z,5.83
2018-03-22T02:25:04.047Z,4.00
2018-03-22T02:27:30.016Z,3.87
2018-03-22T02:29:56.010Z,3.07
2018-03-22T02:32:21.993Z,3.20
2018-03-22T02:34:47.986Z,3.90
2018-03-22T02:37:13.933Z,7.10
2018-03-22T02:39:40.630Z,2.93
2018-03-22T02:42:06.700Z,4.80
2018-03-22T02:44:32.704Z,4.00
2018-03-22T02:46:58.691Z,5.00
2018-03-22T02:49:25.490Z,4.27
2018-03-22T02:51:51.462Z,4.40
2018-03-22T02:54:17.444Z,3.67
2018-03-22T02:56:43.441Z,3.93
2018-03-22T02:59:09.534Z,3.33
2018-03-22T03:01:35.485Z,4.43
2018-03-22T03:04:01.486Z,6.30
2018-03-22T03:06:28.295Z,4.10
2018-03-22T03:08:54.249Z,4.87
2018-03-22T03:11:20.235Z,3.73
2018-03-22T03:13:46.189Z,3.27
2018-03-22T03:16:12.169Z,3.60
2018-03-22T03:18:38.893Z,2.63
2018-03-22T03:21:04.857Z,3.80
2018-03-22T03:23:31.621Z,5.20
2018-03-22T03:25:58.385Z,5.57
2018-03-22T03:28:24.337Z,3.43
2018-03-22T03:30:50.327Z,2.57
2018-03-22T03:33:16.288Z,4.60
2018-03-22T03:35:43.029Z,5.17
2018-03-22T03:38:09.724Z,3.50
2018-03-22T03:40:35.713Z,6.03
2018-03-22T03:43:01.715Z,4.33
2018-03-22T03:45:27.724Z,2.53
2018-03-22T03:47:53.685Z,9.43
2018-03-22T03:50:19.702Z,3.67
2018-03-22T03:52:45.654Z,5.57
2018-03-22T03:55:11.634Z,3.73
2018-03-22T03:57:38.358Z,3.30
2018-03-22T04:00:04.353Z,3.70
2018-03-22T04:02:30.345Z,4.63
2018-03-22T04:04:56.289Z,4.33
2018-03-22T04:07:22.273Z,4.47
2018-03-22T04:09:48.225Z,5.70
2018-03-22T04:12:14.209Z,4.20
2018-03-22T04:14:40.933Z,5.77
2018-03-22T04:17:06.880Z,4.13
2018-03-22T04:19:32.870Z,4.00
2018-03-22T04:21:58.878Z,6.13
2018-03-22T04:24:24.829Z,11.10
2018-03-22T04:26:50.864Z,8.77
2018-03-22T04:29:17.526Z,6.77
2018-03-22T04:31:43.501Z,5.67
2018-03-22T04:34:09.449Z,6.60
2018-03-22T04:36:35.430Z,4.33
2018-03-22T04:39:01.438Z,4.30
2018-03-22T04:41:28.215Z,3.43
2018-03-22T04:43:54.189Z,3.40
2018-03-22T04:46:20.204Z,4.90
2018-03-22T04:48:46.162Z,3.73
2018-03-22T04:51:12.142Z,5.40
2018-03-22T04:53:38.826Z,4.20
2018-03-22T04:56:04.818Z,5.40
2018-03-22T04:58:31.593Z,3.60
2018-03-22T05:00:57.619Z,3.10
2018-03-22T05:03:23.641Z,3.13
2018-03-22T05:05:50.365Z,3.43
2018-03-22T05:08:23.305Z,5.93
2018-03-22T05:10:50.025Z,4.30
2018-03-22T05:13:16.010Z,5.87
2018-03-22T05:15:42.732Z,4.50
2018-03-22T05:18:08.682Z,3.70
2018-03-22T05:20:35.422Z,3.50
2018-03-22T05:23:02.145Z,4.93
2018-03-22T05:25:28.145Z,4.27
2018-03-22T05:27:54.137Z,14.60
2018-03-22T05:30:20.118Z,9.70
2018-03-22T05:32:53.134Z,10.50
2018-03-22T05:35:19.114Z,11.77
2018-03-22T05:37:45.069Z,13.00
2018-03-22T05:40:11.793Z,7.60
2018-03-22T05:42:37.785Z,7.70
2018-03-22T05:45:03.748Z,10.50
2018-03-22T05:47:29.802Z,6.03
2018-03-22T05:49:55.786Z,6.00
2018-03-22T05:52:22.630Z,6.90
2018-03-22T05:54:49.361Z,6.10
2018-03-22T05:57:15.337Z,5.83
2018-03-22T05:59:41.339Z,6.40
2018-03-22T06:02:07.292Z,8.23
2018-03-22T06:04:33.984Z,4.93
2018-03-22T06:07:00.003Z,7.40
2018-03-22T06:09:26.003Z,8.80
2018-03-22T06:11:52.780Z,5.63
2018-03-22T06:14:18.745Z,5.00
2018-03-22T06:16:44.695Z,9.67
2018-03-22T06:19:10.681Z,8.33
2018-03-22T06:21:37.417Z,13.03
2018-03-22T06:24:04.145Z,9.70
2018-03-22T06:26:30.220Z,13.13
2018-03-22T06:28:56.941Z,10.87
2018-03-22T06:31:22.905Z,11.13
2018-03-22T06:33:49.657Z,11.13
2018-03-22T06:36:16.362Z,14.33
2018-03-22T06:38:42.341Z,11.43
2018-03-22T06:41:08.333Z,12.43
2018-03-22T06:43:34.323Z,12.63
2018-03-22T06:46:01.073Z,11.53
2018-03-22T06:48:27.824Z,12.43
2018-03-22T06:50:54.606Z,16.00
2018-03-22T06:53:20.561Z,14.70
2018-03-22T06:55:46.512Z,13.90
2018-03-22T06:58:12.513Z,16.20
2018-03-22T07:00:38.465Z,14.47
2018-03-22T07:03:04.430Z,12.77
2018-03-22T07:05:30.457Z,15.23
2018-03-22T07:07:56.450Z,15.33
2018-03-22T07:10:22.415Z,18.53
2018-03-22T07:12:48.416Z,17.33
2018-03-22T07:15:15.122Z,14.97
2018-03-22T07:17:41.126Z,17.93
2018-03-22T07:20:07.097Z,16.00
2018-03-22T07:22:33.089Z,14.80
2018-03-22T07:24:59.070Z,15.00
2018-03-22T07:27:25.058Z,14.73
2018-03-22T07:29:58.181Z,15.00
2018-03-22T07:32:24.151Z,15.50
2018-03-22T07:34:50.162Z,19.73
2018-03-22T07:37:16.118Z,17.23
2018-03-22T07:39:42.101Z,19.03
2018-03-22T07:42:08.093Z,22.07
2018-03-22T07:44:40.001Z,17.67
2018-03-22T07:47:06.730Z,14.27
2018-03-22T07:49:32.721Z,14.70
2018-03-22T07:51:58.699Z,17.03
2018-03-22T07:54:24.669Z,15.47
2018-03-22T07:56:51.403Z,18.47
2018-03-22T07:59:18.138Z,16.13
2018-03-22T08:01:44.125Z,15.23
2018-03-22T08:04:10.085Z,14.07
2018-03-22T08:06:36.090Z,12.63
2018-03-22T08:09:02.211Z,13.00
2018-03-22T08:11:29.032Z,16.60
2018-03-22T08:14:02.057Z,11.50
2018-03-22T08:16:28.859Z,17.10
2018-03-22T08:18:54.850Z,12.80
2018-03-22T08:21:20.807Z,16.27
2018-03-22T08:23:46.793Z,15.20
2018-03-22T08:26:12.796Z,13.73
2018-03-22T08:28:38.754Z,14.67
2018-03-22T08:31:04.738Z,13.07
2018-03-22T08:33:31.480Z,14.07
2018-03-22T08:35:57.499Z,14.53
2018-03-22T08:38:24.194Z,17.13
2018-03-22T08:40:50.146Z,16.50
2018-03-22T08:43:16.133Z,18.67
2018-03-22T08:45:42.115Z,17.13
2018-03-22T08:48:08.124Z,21.10
2018-03-22T08:50:34.822Z,21.70
2018-03-22T08:53:00.812Z,19.33
2018-03-22T08:55:27.561Z,17.83
2018-03-22T08:57:54.278Z,19.13
2018-03-22T09:00:20.322Z,22.87
2018-03-22T09:02:46.309Z,19.87
2018-03-22T09:05:12.265Z,16.70
2018-03-22T09:07:38.229Z,21.83
2018-03-22T09:10:04.261Z,20.20
2018-03-22T09:12:30.246Z,19.80
2018-03-22T09:14:56.239Z,17.33
2018-03-22T09:17:22.228Z,16.40
2018-03-22T09:19:48.213Z,19.07
2018-03-22T09:22:14.201Z,17.10
2018-03-22T09:24:40.204Z,19.20
2018-03-22T09:27:06.176Z,15.87
2018-03-22T09:29:32.193Z,17.93
2018-03-22T09:31:58.941Z,19.83
2018-03-22T09:34:25.657Z,15.43
2018-03-22T09:36:51.658Z,16.77
2018-03-22T09:39:17.621Z,17.70
2018-03-22T09:41:44.347Z,13.93
2018-03-22T09:44:10.316Z,14.73
2018-03-22T09:46:36.316Z,18.10
2018-03-22T09:49:02.353Z,13.77
2018-03-22T09:51:28.457Z,16.03
2018-03-22T09:53:55.185Z,14.60
2018-03-22T09:56:21.187Z,14.93
2018-03-22T09:58:47.181Z,12.63
2018-03-22T10:01:13.136Z,16.23
2018-03-22T10:03:39.896Z,11.63
2018-03-22T10:06:06.607Z,12.20
2018-03-22T10:08:32.680Z,11.27
2018-03-22T10:10:58.689Z,15.30
2018-03-22T10:13:24.686Z,10.33
2018-03-22T10:15:50.713Z,11.13
2018-03-22T10:18:16.678Z,15.93
2018-03-22T10:20:42.781Z,18.17
2018-03-22T10:23:08.753Z,11.00
2018-03-22T10:25:34.753Z,14.87
2018-03-22T10:28:00.769Z,14.03
2018-03-22T10:30:27.501Z,14.70
2018-03-22T10:32:53.466Z,12.80
2018-03-22T10:35:19.467Z,12.17
2018-03-22T10:37:45.434Z,14.03
2018-03-22T10:40:12.145Z,15.07
2018-03-22T10:42:38.156Z,15.23
2018-03-22T10:45:04.110Z,20.00
2018-03-22T10:47:30.114Z,15.90
2018-03-22T10:49:56.093Z,17.23
2018-03-22T10:52:22.077Z,16.80
2018-03-22T10:54:48.077Z,16.67
2018-03-22T10:57:14.034Z,19.23
2018-03-22T10:59:40.772Z,20.97
2018-03-22T11:02:13.006Z,17.00
2018-03-22T11:04:39.017Z,20.43
2018-03-22T11:07:04.983Z,19.33
2018-03-22T11:09:30.981Z,21.70
2018-03-22T11:11:57.785Z,25.60
2018-03-22T11:14:23.787Z,22.30
2018-03-22T11:16:49.808Z,21.00
2018-03-22T11:19:16.507Z,21.13
2018-03-22T11:21:42.498Z,20.77
2018-03-22T11:24:09.202Z,17.27
2018-03-22T11:26:35.224Z,25.43
2018-03-22T11:29:01.262Z,21.70
2018-03-22T11:31:27.275Z,25.63
2018-03-22T11:33:53.239Z,20.33
2018-03-22T11:36:19.205Z,20.50
2018-03-22T11:38:45.197Z,23.03
2018-03-22T11:41:11.196Z,25.13
2018-03-22T11:43:37.898Z,24.37
2018-03-22T11:46:03.871Z,30.63
2018-03-22T11:48:29.921Z,19.20
2018-03-22T11:50:56.656Z,25.27
2018-03-22T11:53:22.632Z,19.13
2018-03-22T11:55:48.614Z,23.27
2018-03-22T11:58:14.608Z,28.13
2018-03-22T12:00:40.616Z,26.77
2018-03-22T12:03:06.613Z,23.63
2018-03-22T12:05:32.581Z,33.03
2018-03-22T12:07:58.611Z,25.03
2018-03-22T12:10:25.385Z,22.33
2018-03-22T12:12:52.102Z,22.13
2018-03-22T12:15:18.103Z,25.37
2018-03-22T12:17:44.107Z,24.30
2018-03-22T12:20:10.865Z,22.63
2018-03-22T12:22:37.577Z,26.40
2018-03-22T12:25:03.542Z,26.20
2018-03-22T12:27:31.049Z,24.03
2018-03-22T12:29:57.013Z,25.13
2018-03-22T12:32:23.065Z,22.50
2018-03-22T12:34:48.982Z,29.30
2018-03-22T12:37:14.993Z,22.90
2018-03-22T12:39:40.965Z,19.00
2018-03-22T12:42:06.934Z,26.13
2018-03-22T12:44:32.989Z,21.33
2018-03-22T12:46:59.073Z,23.47
2018-03-22T12:49:25.042Z,20.27
2018-03-22T12:51:51.058Z,19.10
2018-03-22T12:54:17.032Z,25.47
2018-03-22T12:56:43.767Z,22.10
2018-03-22T12:59:09.765Z,21.70
2018-03-22T13:01:35.749Z,19.13
2018-03-22T13:04:01.752Z,25.00
2018-03-22T13:06:27.737Z,21.93
2018-03-22T13:08:53.759Z,21.43
2018-03-22T13:11:19.717Z,26.07
2018-03-22T13:13:46.418Z,20.00
2018-03-22T13:16:12.406Z,21.83
2018-03-22T13:18:39.125Z,25.90
2018-03-22T13:21:05.123Z,23.23
2018-03-22T13:23:31.128Z,22.80
2018-03-22T13:25:57.141Z,21.37
2018-03-22T13:28:23.121Z,25.20
2018-03-22T13:30:49.115Z,20.13
2018-03-22T13:33:15.106Z,22.00
2018-03-22T13:35:41.067Z,27.63
2018-03-22T13:38:07.056Z,24.63
2018-03-22T13:40:33.010Z,20.73
2018-03-22T13:42:59.034Z,20.60
2018-03-22T13:45:25.025Z,23.87
2018-03-22T13:47:51.013Z,19.93
2018-03-22T13:50:17.010Z,23.33
2018-03-22T13:52:43.761Z,24.10
2018-03-22T13:55:09.734Z,26.83
2018-03-22T13:57:35.746Z,24.77
2018-03-22T14:00:02.522Z,22.10
2018-03-22T14:02:28.520Z,23.50
2018-03-22T14:04:55.295Z,25.43
2018-03-22T14:07:21.997Z,26.07
2018-03-22T14:09:47.958Z,26.37
2018-03-22T14:12:14.727Z,27.00
2018-03-22T14:14:41.433Z,25.77
2018-03-22T14:17:07.439Z,28.27
2018-03-22T14:19:33.437Z,24.23
2018-03-22T14:21:59.440Z,25.10
2018-03-22T14:24:25.472Z,27.90
2018-03-22T14:26:51.457Z,25.00
2018-03-22T14:29:18.149Z,28.53
2018-03-22T14:31:44.161Z,26.73
2018-03-22T14:34:10.862Z,25.80
2018-03-22T14:36:36.821Z,28.60
2018-03-22T14:39:03.603Z,29.60
2018-03-22T14:41:29.669Z,29.63
2018-03-22T14:43:55.661Z,28.00
2018-03-22T14:46:22.402Z,27.93
2018-03-22T14:48:48.408Z,30.87
2018-03-22T14:51:14.412Z,30.53
2018-03-22T14:53:41.105Z,29.50
2018-03-22T14:56:07.071Z,27.37
2018-03-22T14:58:33.071Z,26.80
2018-03-22T15:00:59.057Z,25.50
2018-03-22T15:03:25.797Z,28.80
2018-03-22T15:05:53.231Z,28.37
2018-03-22T15:08:19.234Z,24.67
2018-03-22T15:10:45.209Z,28.50
2018-03-22T15:13:11.202Z,30.60
2018-03-22T15:15:37.921Z,26.80
2018-03-22T15:18:03.910Z,28.63
2018-03-22T15:20:29.978Z,25.00
2018-03-22T15:22:55.981Z,26.67
2018-03-22T15:25:21.946Z,23.23
2018-03-22T15:27:47.905Z,22.77
2018-03-22T15:30:15.380Z,27.60
2018-03-22T15:32:41.366Z,26.93
2018-03-22T15:35:07.334Z,24.70
2018-03-22T15:37:33.321Z,25.17
2018-03-22T15:39:59.422Z,22.63
2018-03-22T15:42:25.349Z,31.80
2018-03-22T15:44:52.074Z,24.20
2018-03-22T15:47:18.021Z,24.80
2018-03-22T15:49:44.002Z,26.53
2018-03-22T15:52:10.722Z,26.37
2018-03-22T15:54:36.729Z,26.53
2018-03-22T15:57:02.684Z,26.63
2018-03-22T15:59:28.730Z,25.10
2018-03-22T16:01:54.721Z,29.37
2018-03-22T16:04:20.718Z,23.73
2018-03-22T16:06:46.705Z,24.03
2018-03-22T16:09:12.661Z,28.57
2018-03-22T16:11:38.689Z,22.47
2018-03-22T16:14:04.747Z,23.30
2018-03-22T16:16:30.681Z,25.63
2018-03-22T16:18:56.681Z,20.03
2018-03-22T16:21:22.649Z,23.63
2018-03-22T16:23:48.668Z,21.00
2018-03-22T16:26:14.630Z,23.63
2018-03-22T16:28:40.603Z,25.47
2018-03-22T16:31:07.338Z,24.00
2018-03-22T16:33:33.285Z,24.50
2018-03-22T16:36:00.020Z,23.13
2018-03-22T16:38:26.737Z,23.30
2018-03-22T16:40:52.734Z,24.20
2018-03-22T16:43:19.477Z,21.30
2018-03-22T16:45:46.242Z,21.83
2018-03-22T16:48:12.942Z,22.03
2018-03-22T16:50:38.910Z,30.80
2018-03-22T16:53:05.691Z,26.70
2018-03-22T16:55:31.708Z,22.90
2018-03-22T16:57:58.507Z,23.37
2018-03-22T17:00:24.461Z,21.97
2018-03-22T17:02:50.445Z,24.87
2018-03-22T17:05:17.149Z,24.40
2018-03-22T17:07:43.169Z,24.90
2018-03-22T17:10:09.130Z,25.87
2018-03-22T17:12:35.131Z,25.33
2018-03-22T17:15:01.150Z,26.20
2018-03-22T17:17:27.945Z,20.27
2018-03-22T17:19:53.943Z,21.57
2018-03-22T17:22:19.935Z,26.10
2018-03-22T17:24:45.946Z,22.50
2018-03-22T17:27:11.912Z,21.77
2018-03-22T17:29:37.893Z,22.27
2018-03-22T17:32:04.005Z,23.40
2018-03-22T17:34:30.764Z,22.97
2018-03-22T17:36:57.486Z,23.33
2018-03-22T17:39:23.478Z,25.40
2018-03-22T17:41:49.429Z,22.50
2018-03-22T17:44:15.421Z,20.90
2018-03-22T17:46:42.129Z,22.03
2018-03-22T17:49:08.154Z,23.43
2018-03-22T17:51:34.133Z,23.97
2018-03-22T17:54:00.189Z,23.87
2018-03-22T17:56:26.958Z,27.63
2018-03-22T17:58:52.963Z,27.83
2018-03-22T18:01:18.928Z,22.90
2018-03-22T18:03:44.921Z,28.80
2018-03-22T18:06:10.877Z,26.63
2018-03-22T18:08:36.866Z,25.70
2018-03-22T18:11:02.945Z,24.73
2018-03-22T18:13:28.969Z,27.67
2018-03-22T18:15:54.969Z,27.77
2018-03-22T18:18:20.936Z,33.27
2018-03-22T18:20:46.931Z,31.93
2018-03-22T18:23:19.997Z,30.43
2018-03-22T18:25:45.964Z,32.50
2018-03-22T18:28:11.948Z,28.73
2018-03-22T18:30:37.920Z,29.17
2018-03-22T18:33:04.693Z,31.70
2018-03-22T18:35:31.481Z,28.30
2018-03-22T18:37:57.441Z,32.97
2018-03-22T18:40:23.418Z,32.03
2018-03-22T18:42:49.433Z,35.03
2018-03-22T18:45:16.137Z,30.97
2018-03-22T18:47:42.103Z,31.40
2018-03-22T18:50:08.090Z,31.57
2018-03-22T18:52:34.079Z,32.93
2018-03-22T18:55:00.089Z,31.03
2018-03-22T18:57:26.073Z,32.83
2018-03-22T18:59:52.069Z,30.07
2018-03-22T19:02:18.022Z,30.30
2018-03-22T19:04:44.009Z,35.57
2018-03-22T19:07:09.998Z,29.97
2018-03-22T19:09:35.953Z,30.33
2018-03-22T19:12:02.681Z,34.63
2018-03-22T19:14:28.661Z,41.37
2018-03-22T19:16:54.646Z,34.07
2018-03-22T19:19:20.659Z,32.50
2018-03-22T19:21:46.680Z,36.60
2018-03-22T19:24:12.617Z,30.27
2018-03-22T19:26:38.597Z,34.73
2018-03-22T19:29:04.553Z,35.37
2018-03-22T19:31:31.334Z,32.83
2018-03-22T19:33:57.299Z,32.47
2018-03-22T19:36:23.313Z,33.77
2018-03-22T19:38:49.277Z,36.10
2018-03-22T19:41:15.253Z,33.23
2018-03-22T19:43:41.984Z,33.13
2018-03-22T19:46:07.946Z,37.13
2018-03-22T19:48:34.685Z,37.70
2018-03-22T19:51:00.743Z,42.20
2018-03-22T19:53:26.701Z,33.63
2018-03-22T19:55:52.697Z,32.80
2018-03-22T19:58:19.430Z,43.33
2018-03-22T20:00:45.389Z,34.60
2018-03-22T20:03:12.141Z,30.60
2018-03-22T20:05:38.839Z,30.93
2018-03-22T20:08:04.794Z,33.13
2018-03-22T20:10:30.828Z,35.17
2018-03-22T20:12:56.786Z,31.60
2018-03-22T20:15:22.743Z,28.20
2018-03-22T20:17:48.766Z,29.67
2018-03-22T20:20:14.760Z,31.37
2018-03-22T20:22:40.741Z,32.83
2018-03-22T20:25:07.430Z,30.57
2018-03-22T20:27:33.431Z,30.77
2018-03-22T20:30:00.237Z,28.10
2018-03-22T20:32:26.189Z,29.70
2018-03-22T20:34:52.177Z,34.33
2018-03-22T20:37:18.121Z,27.27
2018-03-22T20:39:44.105Z,26.10
2018-03-22T20:42:10.049Z,31.63
2018-03-22T20:44:36.081Z,34.60
2018-03-22T20:47:02.077Z,29.70
2018-03-22T20:49:28.114Z,28.40
2018-03-22T20:51:54.102Z,27.60
2018-03-22T20:54:20.046Z,34.33
2018-03-22T20:56:46.766Z,36.27
2018-03-22T20:59:12.711Z,34.83
2018-03-22T21:01:38.735Z,30.43
2018-03-22T21:04:04.722Z,28.83
2018-03-22T21:06:30.771Z,29.60
2018-03-22T21:08:56.752Z,29.30
2018-03-22T21:11:22.733Z,25.57
2018-03-22T21:13:48.677Z,26.27
2018-03-22T21:16:14.664Z,32.70
2018-03-22T21:18:40.653Z,28.60
2018-03-22T21:21:06.649Z,29.67
2018-03-22T21:23:32.646Z,30.60
2018-03-22T21:25:58.715Z,25.90
2018-03-22T21:28:24.670Z,29.97
2018-03-22T21:30:51.361Z,32.60
2018-03-22T21:33:17.338Z,32.33
2018-03-22T21:35:43.294Z,32.87
2018-03-22T21:38:10.015Z,28.33
2018-03-22T21:40:35.973Z,28.90
2018-03-22T21:43:01.994Z,29.87
2018-03-22T21:45:28.021Z,26.00
2018-03-22T21:47:54.004Z,29.37
2018-03-22T21:50:20.721Z,29.90
2018-03-22T21:52:46.705Z,28.87
2018-03-22T21:55:12.645Z,31.40
2018-03-22T21:57:38.589Z,29.60
2018-03-22T22:00:04.576Z,31.17
2018-03-22T22:02:30.574Z,30.07
2018-03-22T22:04:56.629Z,33.47
2018-03-22T22:07:22.562Z,34.07
2018-03-22T22:09:48.549Z,33.23
2018-03-22T22:12:14.529Z,27.60
2018-03-22T22:14:40.477Z,35.40
2018-03-22T22:17:06.458Z,33.03
2018-03-22T22:19:32.457Z,28.10
2018-03-22T22:21:58.576Z,30.23
2018-03-22T22:24:24.529Z,31.97
2018-03-22T22:26:50.509Z,31.70
2018-03-22T22:29:16.493Z,30.57
2018-03-22T22:31:42.457Z,31.00
2018-03-22T22:34:09.198Z,33.33
2018-03-22T22:36:35.229Z,33.10
2018-03-22T22:39:01.242Z,34.40
2018-03-22T22:41:27.206Z,30.07
2018-03-22T22:43:53.213Z,31.77
2018-03-22T22:46:19.164Z,29.20
2018-03-22T22:48:45.121Z,32.77
2018-03-22T22:51:11.981Z,33.33
2018-03-22T22:53:38.706Z,36.33
2018-03-22T22:56:04.678Z,33.27
2018-03-22T22:58:30.693Z,30.53
2018-03-22T23:00:56.661Z,32.70
2018-03-22T23:03:22.616Z,30.77
2018-03-22T23:05:48.627Z,32.70
2018-03-22T23:08:15.318Z,32.10
2018-03-22T23:10:41.316Z,31.77
2018-03-22T23:13:08.026Z,28.30
2018-03-22T23:15:34.066Z,31.60
2018-03-22T23:18:00.087Z,34.23
2018-03-22T23:20:26.089Z,32.77
2018-03-22T23:22:52.047Z,36.07
2018-03-22T23:25:18.045Z,32.33
2018-03-22T23:27:44.741Z,34.10
2018-03-22T23:30:10.730Z,32.20
2018-03-22T23:32:37.454Z,33.33
2018-03-22T23:35:03.434Z,34.60
2018-03-22T23:37:30.201Z,33.93
2018-03-22T23:39:56.193Z,29.53
2018-03-22T23:42:22.161Z,32.07
2018-03-22T23:44:48.146Z,33.70
2018-03-22T23:47:14.145Z,29.30
2018-03-22T23:49:40.129Z,32.87
2018-03-22T23:52:06.085Z,31.07
2018-03-22T23:54:32.089Z,33.20
2018-03-22T23:56:58.481Z,31.67
2018-03-22T23:59:25.184Z,32.67
